Home > Products > Valid Products > TAF

000
FTUS43 KGRR 290500
TAFAZO
TAF
KAZO 290532Z 2906/3006 18007KT P6SM BKN150
     FM291400 19012G22KT P6SM BKN100
     FM291800 20014G24KT P6SM -SHRA BKN060
     FM292000 20015G25KT 6SM -SHRA BR OVC025
     FM300000 22014KT 5SM -DZ BR OVC009=



000
FTUS43 KGRR 290500
TAFLAN
TAF
KLAN 290532Z 2906/3006 19006KT P6SM SCT150
     FM291400 19011G18KT P6SM OVC150
     FM291900 20019G29KT P6SM -SHRA BKN060
     FM292200 20020G29KT 5SM -SHRA BR OVC025
     FM300000 21014G20KT 6SM -DZ BR OVC009=



000
FTUS43 KGRR 290500
TAFBTL
TAF
KBTL 290532Z 2906/3006 18007KT P6SM BKN150
     FM291400 19012G22KT P6SM BKN100
     FM291800 20014G24KT P6SM -SHRA BKN060
     FM292000 20015G25KT 6SM -SHRA BR OVC025
     FM300000 22014KT 5SM -DZ BR OVC007=



000
FTUS43 KGRR 290500
TAFGRR
TAF
KGRR 290532Z 2906/3006 18007KT P6SM BKN150
     FM291400 19014G25KT P6SM BKN100
     FM291800 20020G29KT P6SM -SHRA BKN060
     FM292000 21020G29KT 5SM -SHRA BR OVC025
     FM300000 22014KT 4SM -DZ BR OVC007=



000
FTUS43 KGRR 290500
TAFMKG
TAF
KMKG 290532Z 2906/3006 19007KT P6SM SCT150
     FM291200 19015G22KT P6SM BKN100
     FM291700 19024G32KT P6SM -SHRA OVC050
     FM291900 21024G34KT 3SM -RASN BR OVC025
     FM300000 22014KT 3SM -DZ BR OVC007=



000
FTUS43 KGRR 290500
TAFJXN
TAF
KJXN 290532Z 2906/3006 19006KT P6SM SCT150
     FM291400 19011G18KT P6SM OVC150
     FM291900 20016G26KT P6SM VCSH BKN060
     FM292200 20016G26KT P6SM -SHRA OVC035
     FM300000 21014G20KT 6SM -DZ BR OVC009=



000
FTUS43 KGRR 290500
TAFJXN
TAF
KJXN 290532Z 2906/3006 19006KT P6SM SCT150
     FM291400 19011G18KT P6SM OVC150
     FM291900 20016G26KT P6SM VCSH BKN060
     FM292200 20016G26KT P6SM -SHRA OVC035
     FM300000 21014G20KT 6SM -DZ BR OVC009=



000
FTUS43 KGRR 290500
TAFGRR
TAF
KGRR 290532Z 2906/3006 18007KT P6SM BKN150
     FM291400 19014G25KT P6SM BKN100
     FM291800 20020G29KT P6SM -SHRA BKN060
     FM292000 21020G29KT 5SM -SHRA BR OVC025
     FM300000 22014KT 4SM -DZ BR OVC007=



000
FTUS43 KGRR 290500
TAFLAN
TAF
KLAN 290532Z 2906/3006 19006KT P6SM SCT150
     FM291400 19011G18KT P6SM OVC150
     FM291900 20019G29KT P6SM -SHRA BKN060
     FM292200 20020G29KT 5SM -SHRA BR OVC025
     FM300000 21014G20KT 6SM -DZ BR OVC009=



000
FTUS43 KGRR 290500
TAFAZO
TAF
KAZO 290532Z 2906/3006 18007KT P6SM BKN150
     FM291400 19012G22KT P6SM BKN100
     FM291800 20014G24KT P6SM -SHRA BKN060
     FM292000 20015G25KT 6SM -SHRA BR OVC025
     FM300000 22014KT 5SM -DZ BR OVC009=



000
FTUS43 KGRR 290500
TAFBTL
TAF
KBTL 290532Z 2906/3006 18007KT P6SM BKN150
     FM291400 19012G22KT P6SM BKN100
     FM291800 20014G24KT P6SM -SHRA BKN060
     FM292000 20015G25KT 6SM -SHRA BR OVC025
     FM300000 22014KT 5SM -DZ BR OVC007=



000
FTUS43 KGRR 290500
TAFMKG
TAF
KMKG 290532Z 2906/3006 19007KT P6SM SCT150
     FM291200 19015G22KT P6SM BKN100
     FM291700 19024G32KT P6SM -SHRA OVC050
     FM291900 21024G34KT 3SM -RASN BR OVC025
     FM300000 22014KT 3SM -DZ BR OVC007=



000
FTUS43 KGRR 282300
TAFGRR
TAF
KGRR 282340Z 2900/2924 18007KT P6SM BKN150
     FM291400 19014G25KT P6SM BKN100
     FM291800 20016G28KT P6SM -SHRA BKN060
     FM292000 21018G28KT 5SM -SHRA BR OVC025=



000
FTUS43 KGRR 282300
TAFJXN
TAF
KJXN 282340Z 2900/2924 19006KT P6SM SCT150
     FM291400 19011G18KT P6SM OVC150
     FM291900 20014G24KT P6SM -SHRA BKN060
     FM292200 20015G25KT 5SM -SHRA BR OVC025=



000
FTUS43 KGRR 282300
TAFAZO
TAF
KAZO 282340Z 2900/2924 18007KT P6SM BKN150
     FM291400 19012G22KT P6SM BKN100
     FM291800 20014G24KT P6SM -SHRA BKN060
     FM292000 20015G25KT 5SM -SHRA BR OVC025=



000
FTUS43 KGRR 282300
TAFGRR
TAF
KGRR 282340Z 2900/2924 18007KT P6SM BKN150
     FM291400 19014G25KT P6SM BKN100
     FM291800 20016G28KT P6SM -SHRA BKN060
     FM292000 21018G28KT 5SM -SHRA BR OVC025=



000
FTUS43 KGRR 282300
TAFBTL
TAF
KBTL 282340Z 2900/2924 18007KT P6SM BKN150
     FM291400 19012G22KT P6SM BKN100
     FM291800 20014G24KT P6SM -SHRA BKN060
     FM292000 20015G25KT 5SM -SHRA BR OVC025=



000
FTUS43 KGRR 282300
TAFJXN
TAF
KJXN 282340Z 2900/2924 19006KT P6SM SCT150
     FM291400 19011G18KT P6SM OVC150
     FM291900 20014G24KT P6SM -SHRA BKN060
     FM292200 20015G25KT 5SM -SHRA BR OVC025=



000
FTUS43 KGRR 282300
TAFLAN
TAF
KLAN 282340Z 2900/2924 19006KT P6SM SCT150
     FM291400 19011G18KT P6SM OVC150
     FM291900 20014G24KT P6SM -SHRA BKN060
     FM292200 20015G25KT 5SM -SHRA BR OVC025=



000
FTUS43 KGRR 282300
TAFAZO
TAF
KAZO 282340Z 2900/2924 18007KT P6SM BKN150
     FM291400 19012G22KT P6SM BKN100
     FM291800 20014G24KT P6SM -SHRA BKN060
     FM292000 20015G25KT 5SM -SHRA BR OVC025=



000
FTUS43 KGRR 282300
TAFMKG
TAF
KMKG 282340Z 2900/2924 20007KT P6SM SCT150
     FM291200 19015G22KT P6SM BKN100
     FM291700 19020G32KT P6SM -SHRA OVC050
     FM291900 21020G30KT 5SM -SHRA BR OVC025=



000
FTUS43 KGRR 282300
TAFBTL
TAF
KBTL 282340Z 2900/2924 18007KT P6SM BKN150
     FM291400 19012G22KT P6SM BKN100
     FM291800 20014G24KT P6SM -SHRA BKN060
     FM292000 20015G25KT 5SM -SHRA BR OVC025=



000
FTUS43 KGRR 282300
TAFMKG
TAF
KMKG 282340Z 2900/2924 20007KT P6SM SCT150
     FM291200 19015G22KT P6SM BKN100
     FM291700 19020G32KT P6SM -SHRA OVC050
     FM291900 21020G30KT 5SM -SHRA BR OVC025=



000
FTUS43 KGRR 282300
TAFLAN
TAF
KLAN 282340Z 2900/2924 19006KT P6SM SCT150
     FM291400 19011G18KT P6SM OVC150
     FM291900 20014G24KT P6SM -SHRA BKN060
     FM292200 20015G25KT 5SM -SHRA BR OVC025=



000
FTUS43 KGRR 281700
TAFMKG
TAF
KMKG 281740Z 2818/2918 VRB05KT P6SM SKC
     FM290600 20010KT P6SM BKN150
     FM291200 19015G22KT P6SM BKN100
     FM291700 19020G32KT P6SM -SHRA OVC050=



000
FTUS43 KGRR 281700
TAFLAN
TAF
KLAN 281740Z 2818/2918 VRB04KT P6SM SKC
     FM290900 19008KT P6SM SCT150
     FM291400 19014G25KT P6SM OVC150=



000
FTUS43 KGRR 281700
TAFBTL
TAF
KBTL 281740Z 2818/2918 05005KT P6SM SKC
     FM290800 19008KT P6SM BKN150
     FM291400 20014G24KT P6SM OVC080=



000
FTUS43 KGRR 281700
TAFJXN
TAF
KJXN 281740Z 2818/2918 35008KT P6SM SKC
     FM290900 19008KT P6SM SCT150
     FM291400 19014G25KT P6SM OVC150=



000
FTUS43 KGRR 281700
TAFLAN
TAF
KLAN 281740Z 2818/2918 VRB04KT P6SM SKC
     FM290900 19008KT P6SM SCT150
     FM291400 19014G25KT P6SM OVC150=



000
FTUS43 KGRR 281700
TAFAZO
TAF
KAZO 281740Z 2818/2918 VRB05KT P6SM SKC
     FM290700 18008KT P6SM BKN150
     FM291400 19012G22KT P6SM BKN100
     FM291700 20014G24KT P6SM VCSH BKN060=



000
FTUS43 KGRR 281700
TAFMKG
TAF
KMKG 281740Z 2818/2918 VRB05KT P6SM SKC
     FM290600 20010KT P6SM BKN150
     FM291200 19015G22KT P6SM BKN100
     FM291700 19020G32KT P6SM -SHRA OVC050=



000
FTUS43 KGRR 281700
TAFGRR
TAF
KGRR 281740Z 2818/2918 VRB05KT P6SM SKC
     FM290700 18008KT P6SM BKN150
     FM291400 19014G25KT P6SM BKN100
     FM291700 20016G28KT P6SM VCSH BKN060=



000
FTUS43 KGRR 281700
TAFAZO
TAF
KAZO 281740Z 2818/2918 VRB05KT P6SM SKC
     FM290700 18008KT P6SM BKN150
     FM291400 19012G22KT P6SM BKN100
     FM291700 20014G24KT P6SM VCSH BKN060=



000
FTUS43 KGRR 281700
TAFJXN
TAF
KJXN 281740Z 2818/2918 35008KT P6SM SKC
     FM290900 19008KT P6SM SCT150
     FM291400 19014G25KT P6SM OVC150=



000
FTUS43 KGRR 281700
TAFGRR
TAF
KGRR 281740Z 2818/2918 VRB05KT P6SM SKC
     FM290700 18008KT P6SM BKN150
     FM291400 19014G25KT P6SM BKN100
     FM291700 20016G28KT P6SM VCSH BKN060=



000
FTUS43 KGRR 281700
TAFBTL
TAF
KBTL 281740Z 2818/2918 05005KT P6SM SKC
     FM290800 19008KT P6SM BKN150
     FM291400 20014G24KT P6SM OVC080=



000
FTUS43 KGRR 281100
TAFBTL
TAF
KBTL 281138Z 2812/2912 35005KT P6SM SKC
     FM290900 19008KT P6SM BKN150=



000
FTUS43 KGRR 281100
TAFLAN
TAF
KLAN 281138Z 2812/2912 34006KT P6SM SKC
     FM291000 19008KT P6SM BKN150=



000
FTUS43 KGRR 281100
TAFMKG
TAF
KMKG 281138Z 2812/2912 36005KT P6SM SKC
     FM290600 19010G18KT P6SM BKN150=



000
FTUS43 KGRR 281100
TAFAZO
TAF
KAZO 281138Z 2812/2912 35005KT P6SM SKC
     FM290900 19008KT P6SM BKN150=



000
FTUS43 KGRR 281100
TAFJXN
TAF
KJXN 281138Z 2812/2912 34006KT P6SM SKC
     FM291000 19008KT P6SM BKN150=



000
FTUS43 KGRR 281100
TAFGRR
TAF
KGRR 281138Z 2812/2912 36005KT P6SM SKC
     FM290800 19010KT P6SM BKN150=



000
FTUS43 KGRR 281100
TAFMKG
TAF
KMKG 281138Z 2812/2912 36005KT P6SM SKC
     FM290600 19010G18KT P6SM BKN150=



000
FTUS43 KGRR 281100
TAFJXN
TAF
KJXN 281138Z 2812/2912 34006KT P6SM SKC
     FM291000 19008KT P6SM BKN150=



000
FTUS43 KGRR 281100
TAFGRR
TAF
KGRR 281138Z 2812/2912 36005KT P6SM SKC
     FM290800 19010KT P6SM BKN150=



000
FTUS43 KGRR 281100
TAFLAN
TAF
KLAN 281138Z 2812/2912 34006KT P6SM SKC
     FM291000 19008KT P6SM BKN150=



000
FTUS43 KGRR 281100
TAFBTL
TAF
KBTL 281138Z 2812/2912 35005KT P6SM SKC
     FM290900 19008KT P6SM BKN150=



000
FTUS43 KGRR 281100
TAFAZO
TAF
KAZO 281138Z 2812/2912 35005KT P6SM SKC
     FM290900 19008KT P6SM BKN150=



000
FTUS43 KGRR 280500
TAFGRR
TAF
KGRR 280540Z 2806/2906 36007KT P6SM SKC=



000
FTUS43 KGRR 280500
TAFBTL
TAF
KBTL 280540Z 2806/2906 01008KT P6SM SKC=



000
FTUS43 KGRR 280500
TAFJXN
TAF
KJXN 280540Z 2806/2906 02007KT P6SM SCT050=



000
FTUS43 KGRR 280500
TAFMKG
TAF
KMKG 280540Z 2806/2906 36008KT P6SM SKC=



000
FTUS43 KGRR 280500
TAFAZO
TAF
KAZO 280540Z 2806/2906 35007KT P6SM SKC=



000
FTUS43 KGRR 280500
TAFAZO
TAF
KAZO 280540Z 2806/2906 35007KT P6SM SKC=



000
FTUS43 KGRR 280500
TAFLAN
TAF
KLAN 280540Z 2806/2906 02008KT P6SM SCT050=



000
FTUS43 KGRR 280500
TAFGRR
TAF
KGRR 280540Z 2806/2906 36007KT P6SM SKC=



000
FTUS43 KGRR 280500
TAFBTL
TAF
KBTL 280540Z 2806/2906 01008KT P6SM SKC=



000
FTUS43 KGRR 280500
TAFJXN
TAF
KJXN 280540Z 2806/2906 02007KT P6SM SCT050=



000
FTUS43 KGRR 280500
TAFMKG
TAF
KMKG 280540Z 2806/2906 36008KT P6SM SKC=



000
FTUS43 KGRR 280500
TAFLAN
TAF
KLAN 280540Z 2806/2906 02008KT P6SM SCT050=



000
FTUS43 KGRR 280200 AAA
TAFGRR
TAF AMD
KGRR 280209Z 2802/2824 01012KT P6SM FEW050
     FM280300 01004KT P6SM SKC=



000
FTUS43 KGRR 272300
TAFJXN
TAF
KJXN 272340Z 2800/2824 34011KT P6SM SCT050
     FM280300 01005KT P6SM SKC=



000
FTUS43 KGRR 272300
TAFGRR
TAF
KGRR 272340Z 2800/2824 33012KT P6SM FEW050
     FM280300 01004KT P6SM SKC=



000
FTUS43 KGRR 272300
TAFMKG
TAF
KMKG 272340Z 2800/2824 33011KT P6SM FEW050
     FM280300 03004KT P6SM SKC=



000
FTUS43 KGRR 272300
TAFAZO
TAF
KAZO 272340Z 2800/2824 32010KT P6SM FEW050
     FM280300 01004KT P6SM SKC=



000
FTUS43 KGRR 272300
TAFBTL
TAF
KBTL 272340Z 2800/2824 33010KT P6SM FEW050
     FM280300 01005KT P6SM SKC=



000
FTUS43 KGRR 272300
TAFLAN
TAF
KLAN 272340Z 2800/2824 34010KT P6SM SCT050
     FM280300 01005KT P6SM SKC=



000
FTUS43 KGRR 272300
TAFAZO
TAF
KAZO 272340Z 2800/2824 32010KT P6SM FEW050
     FM280300 01004KT P6SM SKC=



000
FTUS43 KGRR 272300
TAFMKG
TAF
KMKG 272340Z 2800/2824 33011KT P6SM FEW050
     FM280300 03004KT P6SM SKC=



000
FTUS43 KGRR 272300
TAFBTL
TAF
KBTL 272340Z 2800/2824 33010KT P6SM FEW050
     FM280300 01005KT P6SM SKC=



000
FTUS43 KGRR 272300
TAFLAN
TAF
KLAN 272340Z 2800/2824 34010KT P6SM SCT050
     FM280300 01005KT P6SM SKC=



000
FTUS43 KGRR 272300
TAFJXN
TAF
KJXN 272340Z 2800/2824 34011KT P6SM SCT050
     FM280300 01005KT P6SM SKC=



000
FTUS43 KGRR 272300
TAFGRR
TAF
KGRR 272340Z 2800/2824 33012KT P6SM FEW050
     FM280300 01004KT P6SM SKC=



000
FTUS43 KGRR 271700
TAFMKG
TAF
KMKG 271720Z 2718/2818 35013G23KT P6SM SCT050
     FM280100 03004KT P6SM SKC=



000
FTUS43 KGRR 271700
TAFAZO
TAF
KAZO 271720Z 2718/2818 34012G22KT P6SM SCT050
     FM280100 01004KT P6SM SKC=



000
FTUS43 KGRR 271700
TAFJXN
TAF
KJXN 271720Z 2718/2818 34012G22KT P6SM SCT050
      TEMPO 2718/2720 BKN035
     FM280100 01005KT P6SM SKC=



000
FTUS43 KGRR 271700
TAFLAN
TAF
KLAN 271720Z 2718/2818 34012G22KT P6SM SCT050
     FM280100 01005KT P6SM SKC=



000
FTUS43 KGRR 271700
TAFBTL
TAF
KBTL 271720Z 2718/2818 34012G22KT P6SM SCT050
     FM280100 01005KT P6SM SKC=



000
FTUS43 KGRR 271700
TAFGRR
TAF
KGRR 271720Z 2718/2818 34013G23KT P6SM SCT050
     FM280100 01004KT P6SM SKC=



000
FTUS43 KGRR 271100
TAFBTL
TAF
KBTL 271140Z 2712/2812 34012G20KT P6SM BKN035
     FM280000 01007KT P6SM SKC=



000
FTUS43 KGRR 271100
TAFGRR
TAF
KGRR 271140Z 2712/2812 34013G21KT P6SM BKN040
     FM280000 01007KT P6SM SKC=



000
FTUS43 KGRR 271100
TAFLAN
TAF
KLAN 271140Z 2712/2812 34013G21KT P6SM BKN035
     FM280000 36007KT P6SM SKC=



000
FTUS43 KGRR 271100
TAFLAN
TAF
KLAN 271140Z 2712/2812 34013G21KT P6SM BKN035
     FM280000 36007KT P6SM SKC=



000
FTUS43 KGRR 271100
TAFMKG
TAF
KMKG 271140Z 2712/2812 35012G21KT P6SM BKN050
     FM280000 01007KT P6SM SKC=



000
FTUS43 KGRR 271100
TAFJXN
TAF
KJXN 271140Z 2712/2812 34010G18KT P6SM OVC025
     FM271500 34012G21KT P6SM BKN035
     FM280000 36007KT P6SM SKC=



000
FTUS43 KGRR 271100
TAFAZO
TAF
KAZO 271140Z 2712/2812 34012G20KT P6SM BKN035
     FM280000 01007KT P6SM SKC=



000
FTUS43 KGRR 271100
TAFMKG
TAF
KMKG 271140Z 2712/2812 35012G21KT P6SM BKN050
     FM280000 01007KT P6SM SKC=



000
FTUS43 KGRR 271100
TAFJXN
TAF
KJXN 271140Z 2712/2812 34010G18KT P6SM OVC025
     FM271500 34012G21KT P6SM BKN035
     FM280000 36007KT P6SM SKC=



000
FTUS43 KGRR 271100
TAFBTL
TAF
KBTL 271140Z 2712/2812 34012G20KT P6SM BKN035
     FM280000 01007KT P6SM SKC=



000
FTUS43 KGRR 271100
TAFGRR
TAF
KGRR 271140Z 2712/2812 34013G21KT P6SM BKN040
     FM280000 01007KT P6SM SKC=



000
FTUS43 KGRR 271100
TAFAZO
TAF
KAZO 271140Z 2712/2812 34012G20KT P6SM BKN035
     FM280000 01007KT P6SM SKC=



000
FTUS43 KGRR 270500
TAFAZO
TAF
KAZO 270540Z 2706/2806 33011KT P6SM VCSH SCT015 OVC050
     FM271200 35012G18KT P6SM OVC050
     FM280000 35008KT P6SM SCT050=



000
FTUS43 KGRR 270500
TAFBTL
TAF
KBTL 270540Z 2706/2806 33010KT P6SM VCSH OVC050
     FM271200 34012G20KT P6SM BKN050
     FM272300 35009KT P6SM SCT050=



000
FTUS43 KGRR 270500
TAFGRR
TAF
KGRR 270540Z 2706/2806 34012KT P6SM -SN SCT025 OVC050
     FM271200 35014G22KT P6SM OVC050
     FM272300 35010KT P6SM SCT050=



000
FTUS43 KGRR 270500
TAFLAN
TAF
KLAN 270540Z 2706/2806 33011KT P6SM VCSH SCT025 OVC050
     FM271200 34012G20KT P6SM BKN050
     FM272300 34011KT P6SM SCT050=



000
FTUS43 KGRR 270500
TAFMKG
TAF
KMKG 270540Z 2706/2806 35010G18KT P6SM VCSH SCT025 BKN050
     FM271200 35012G22KT P6SM BKN050
     FM272300 01010KT P6SM SCT050=



000
FTUS43 KGRR 270500
TAFJXN
TAF
KJXN 270540Z 2706/2806 33010KT P6SM VCSH SCT025 OVC050
     FM271200 34012G18KT P6SM BKN050
     FM272300 34011KT P6SM SCT050=



000
FTUS43 KGRR 270500
TAFMKG
TAF
KMKG 270540Z 2706/2806 35010G18KT P6SM VCSH SCT025 BKN050
     FM271200 35012G22KT P6SM BKN050
     FM272300 01010KT P6SM SCT050=



000
FTUS43 KGRR 270500
TAFLAN
TAF
KLAN 270540Z 2706/2806 33011KT P6SM VCSH SCT025 OVC050
     FM271200 34012G20KT P6SM BKN050
     FM272300 34011KT P6SM SCT050=



000
FTUS43 KGRR 270500
TAFAZO
TAF
KAZO 270540Z 2706/2806 33011KT P6SM VCSH SCT015 OVC050
     FM271200 35012G18KT P6SM OVC050
     FM280000 35008KT P6SM SCT050=



000
FTUS43 KGRR 270500
TAFGRR
TAF
KGRR 270540Z 2706/2806 34012KT P6SM -SN SCT025 OVC050
     FM271200 35014G22KT P6SM OVC050
     FM272300 35010KT P6SM SCT050=



000
FTUS43 KGRR 270500
TAFJXN
TAF
KJXN 270540Z 2706/2806 33010KT P6SM VCSH SCT025 OVC050
     FM271200 34012G18KT P6SM BKN050
     FM272300 34011KT P6SM SCT050=



000
FTUS43 KGRR 270500
TAFBTL
TAF
KBTL 270540Z 2706/2806 33010KT P6SM VCSH OVC050
     FM271200 34012G20KT P6SM BKN050
     FM272300 35009KT P6SM SCT050=



000
FTUS43 KGRR 270300 AAA
TAFMKG
TAF AMD
KMKG 270336Z 2704/2724 35012KT P6SM -SN SCT025 OVC050
     FM271200 35012G20KT P6SM OVC050=



000
FTUS43 KGRR 270300 AAA
TAFJXN
TAF AMD
KJXN 270335Z 2704/2724 33010KT P6SM SCT025 OVC035
     FM271200 34012G18KT P6SM BKN050=



000
FTUS43 KGRR 262300
TAFJXN
TAF
KJXN 262340Z 2700/2724 30012KT P6SM OVC035
     FM271200 34012G18KT P6SM BKN050=



000
FTUS43 KGRR 262300
TAFMKG
TAF
KMKG 262340Z 2700/2724 32010KT P6SM VCSH OVC035
     FM271200 35012G18KT P6SM OVC050=



000
FTUS43 KGRR 262300
TAFLAN
TAF
KLAN 262340Z 2700/2724 32010KT P6SM OVC035
     FM271200 34012G18KT P6SM BKN050=



000
FTUS43 KGRR 262300
TAFAZO
TAF
KAZO 262340Z 2700/2724 32010KT P6SM OVC035
     FM271200 35012G18KT P6SM OVC050=



000
FTUS43 KGRR 262300
TAFLAN
TAF
KLAN 262340Z 2700/2724 32010KT P6SM OVC035
     FM271200 34012G18KT P6SM BKN050=



000
FTUS43 KGRR 262300
TAFBTL
TAF
KBTL 262340Z 2700/2724 32012G18KT P6SM OVC035
     FM271200 34012G18KT P6SM BKN050=



000
FTUS43 KGRR 262300
TAFGRR
TAF
KGRR 262340Z 2700/2724 32010KT P6SM VCSH OVC035
     FM271200 35012G18KT P6SM OVC050=



000
FTUS43 KGRR 262300
TAFAZO
TAF
KAZO 262340Z 2700/2724 32010KT P6SM OVC035
     FM271200 35012G18KT P6SM OVC050=



000
FTUS43 KGRR 262300
TAFJXN
TAF
KJXN 262340Z 2700/2724 30012KT P6SM OVC035
     FM271200 34012G18KT P6SM BKN050=



000
FTUS43 KGRR 262300
TAFMKG
TAF
KMKG 262340Z 2700/2724 32010KT P6SM VCSH OVC035
     FM271200 35012G18KT P6SM OVC050=



000
FTUS43 KGRR 262300
TAFGRR
TAF
KGRR 262340Z 2700/2724 32010KT P6SM VCSH OVC035
     FM271200 35012G18KT P6SM OVC050=



000
FTUS43 KGRR 262300
TAFBTL
TAF
KBTL 262340Z 2700/2724 32012G18KT P6SM OVC035
     FM271200 34012G18KT P6SM BKN050=



000
FTUS43 KGRR 262100 AAA
TAFMKG
TAF AMD
KMKG 262100Z 2621/2718 32010G18KT P6SM OVC028
     FM270100 34010KT P6SM OVC050=



000
FTUS43 KGRR 261700
TAFGRR
TAF
KGRR 261740Z 2618/2718 31014KT P6SM OVC035
     FM270100 33008KT P6SM OVC050=



000
FTUS43 KGRR 261700
TAFAZO
TAF
KAZO 261740Z 2618/2718 30012KT P6SM OVC035
     FM270100 33008KT P6SM BKN050=



000
FTUS43 KGRR 261700
TAFMKG
TAF
KMKG 261740Z 2618/2718 31014G22KT P6SM OVC040
     FM270100 34010KT P6SM OVC050=



000
FTUS43 KGRR 261700
TAFAZO
TAF
KAZO 261740Z 2618/2718 30012KT P6SM OVC035
     FM270100 33008KT P6SM BKN050=



000
FTUS43 KGRR 261700
TAFJXN
TAF
KJXN 261740Z 2618/2718 30012KT P6SM OVC035
     FM270100 32008KT P6SM BKN050=



000
FTUS43 KGRR 261700
TAFGRR
TAF
KGRR 261740Z 2618/2718 31014KT P6SM OVC035
     FM270100 33008KT P6SM OVC050=



000
FTUS43 KGRR 261700
TAFMKG
TAF
KMKG 261740Z 2618/2718 31014G22KT P6SM OVC040
     FM270100 34010KT P6SM OVC050=



000
FTUS43 KGRR 261700
TAFJXN
TAF
KJXN 261740Z 2618/2718 30012KT P6SM OVC035
     FM270100 32008KT P6SM BKN050=



000
FTUS43 KGRR 261700
TAFLAN
TAF
KLAN 261740Z 2618/2718 29012KT P6SM OVC035
     FM270100 32008KT P6SM BKN050=



000
FTUS43 KGRR 261700
TAFBTL
TAF
KBTL 261740Z 2618/2718 32012G18KT P6SM OVC035
     FM270100 33008KT P6SM BKN050=



000
FTUS43 KGRR 261700
TAFBTL
TAF
KBTL 261740Z 2618/2718 32012G18KT P6SM OVC035
     FM270100 33008KT P6SM BKN050=



000
FTUS43 KGRR 261700
TAFLAN
TAF
KLAN 261740Z 2618/2718 29012KT P6SM OVC035
     FM270100 32008KT P6SM BKN050=



000
FTUS43 KGRR 261500 AAA
TAFBTL
TAF AMD
KBTL 261513Z 2615/2712 30010KT P6SM OVC035
     FM261800 31012G21KT P6SM BKN035
     FM270100 32008KT P6SM BKN050=



000
FTUS43 KGRR 261500 AAA
TAFJXN
TAF AMD
KJXN 261513Z 2615/2712 31010KT P6SM OVC035
     FM261800 31010G20KT P6SM BKN035
     FM270100 30008KT P6SM BKN050=



000
FTUS43 KGRR 261500 AAA
TAFJXN
TAF AMD
KJXN 261513Z 2615/2712 31010KT P6SM OVC035
     FM261800 31010G20KT P6SM BKN035
     FM270100 30008KT P6SM BKN050=



000
FTUS43 KGRR 261300 AAA
TAFAZO
TAF AMD
KAZO 261323Z 2613/2712 30007KT P6SM OVC035
     FM261800 31012G21KT P6SM BKN035
     FM270100 32008KT P6SM BKN050=



000
FTUS43 KGRR 261100
TAFMKG
TAF
KMKG 261140Z 2612/2712 29009KT P6SM OVC035
     FM261600 30011G20KT P6SM VCSH OVC035
     FM270000 35009KT P6SM BKN050=



000
FTUS43 KGRR 261100
TAFGRR
TAF
KGRR 261140Z 2612/2712 29007KT P6SM BKN035
     FM261600 29013G21KT P6SM VCSH BKN035
     FM270100 30011KT P6SM BKN050=



000
FTUS43 KGRR 261100
TAFJXN
TAF
KJXN 261140Z 2612/2712 31006KT P6SM VCSH OVC025
     FM261800 31010G20KT P6SM BKN035
     FM270100 30008KT P6SM BKN050=



000
FTUS43 KGRR 261100
TAFAZO
TAF
KAZO 261140Z 2612/2712 30007KT P6SM OVC025
     FM261800 31012G21KT P6SM BKN035
     FM270100 32008KT P6SM BKN050=



000
FTUS43 KGRR 261100
TAFAZO
TAF
KAZO 261140Z 2612/2712 30007KT P6SM OVC025
     FM261800 31012G21KT P6SM BKN035
     FM270100 32008KT P6SM BKN050=



000
FTUS43 KGRR 261100
TAFLAN
TAF
KLAN 261140Z 2612/2712 29007KT P6SM BKN035
     FM261800 29013G21KT P6SM VCSH BKN035
     FM270100 30010KT P6SM BKN050=



000
FTUS43 KGRR 261100
TAFBTL
TAF
KBTL 261140Z 2612/2712 30007KT P6SM OVC025
     FM261800 31012G21KT P6SM BKN035
     FM270100 32008KT P6SM BKN050=



000
FTUS43 KGRR 261100
TAFJXN
TAF
KJXN 261140Z 2612/2712 31006KT P6SM VCSH OVC025
     FM261800 31010G20KT P6SM BKN035
     FM270100 30008KT P6SM BKN050=



000
FTUS43 KGRR 261100
TAFGRR
TAF
KGRR 261140Z 2612/2712 29007KT P6SM BKN035
     FM261600 29013G21KT P6SM VCSH BKN035
     FM270100 30011KT P6SM BKN050=



000
FTUS43 KGRR 261100
TAFLAN
TAF
KLAN 261140Z 2612/2712 29007KT P6SM BKN035
     FM261800 29013G21KT P6SM VCSH BKN035
     FM270100 30010KT P6SM BKN050=



000
FTUS43 KGRR 261100
TAFMKG
TAF
KMKG 261140Z 2612/2712 29009KT P6SM OVC035
     FM261600 30011G20KT P6SM VCSH OVC035
     FM270000 35009KT P6SM BKN050=



000
FTUS43 KGRR 261100
TAFBTL
TAF
KBTL 261140Z 2612/2712 30007KT P6SM OVC025
     FM261800 31012G21KT P6SM BKN035
     FM270100 32008KT P6SM BKN050=



    US Dept of Commerce
    National Oceanic and Atmospheric Administration
    National Weather Service
    1325 East West Highway
    Silver Spring, MD 20910
    Page Author: NWS Internet Services Team
Disclaimer
Information Quality
Credits
Glossary
Privacy Policy
Freedom of Information Act (FOIA)
About Us
Career Opportunities